Time;durP1;ratioP1;P1;durP2;ratioP2;P2;SDS_P1;SDS_P2;PMS_P1;PMS_P2;Temp;Humidity;BMP_temperature;BMP_pressure;BME280_temperature;BME280_humidity;BME280_pressure;Samples;Min_cycle;Max_cycle;Signal;HPM_P1;HPM_P2
2023/03/30 00:02:24;;;;;;;13.43;9.83;;;7.20;99.90;;;;;;10212938;29;20250;-92
2023/03/30 00:07:28;;;;;;;18.30;10.97;;;7.20;99.90;;;;;;10213051;29;20234;-90
2023/03/30 00:12:31;;;;;;;16.70;11.10;;;7.20;99.90;;;;;;10214172;29;20290;-90
2023/03/30 00:17:34;;;;;;;16.23;10.03;;;7.20;99.90;;;;;;10212961;29;20302;-91
2023/03/30 00:22:41;;;;;;;15.30;10.57;;;7.20;99.90;;;;;;10212703;29;20250;-91
2023/03/30 00:27:44;;;;;;;15.63;10.37;;;7.20;99.90;;;;;;10211103;29;20646;-90
2023/03/30 00:32:47;;;;;;;14.40;9.33;;;7.10;99.90;;;;;;10195987;29;20701;-91
2023/03/30 00:37:50;;;;;;;10.53;8.33;;;7.10;99.90;;;;;;10212965;29;20274;-91
2023/03/30 00:43:10;;;;;;;15.70;11.17;;;7.20;99.90;;;;;;10212877;29;20650;-91
2023/03/30 00:48:17;;;;;;;9.90;7.27;;;7.20;99.90;;;;;;10212971;29;20650;-91
2023/03/30 00:53:24;;;;;;;17.50;11.27;;;7.40;99.90;;;;;;10212780;29;20235;-91
2023/03/30 00:58:28;;;;;;;18.07;10.97;;;7.40;99.90;;;;;;10212395;29;20238;-91
2023/03/30 01:03:36;;;;;;;15.57;10.80;;;7.30;99.90;;;;;;10210958;29;20254;-91
2023/03/30 01:08:41;;;;;;;22.67;11.80;;;7.30;99.90;;;;;;10211804;29;20239;-90
2023/03/30 01:13:47;;;;;;;18.77;11.67;;;7.30;99.90;;;;;;10210465;29;20301;-87
2023/03/30 01:19:02;;;;;;;15.13;9.93;;;7.30;99.90;;;;;;10211503;29;20235;-88
2023/03/30 01:24:41;;;;;;;15.17;11.03;;;7.60;99.90;;;;;;10210752;29;20266;-88
2023/03/30 01:30:05;;;;;;;15.87;11.00;;;7.70;99.90;;;;;;10209422;29;20267;-89
2023/03/30 01:35:26;;;;;;;15.73;10.47;;;7.50;99.90;;;;;;10242426;29;20307;-89
2023/03/30 01:40:32;;;;;;;17.13;11.17;;;7.40;99.90;;;;;;10215502;29;20322;-88
2023/03/30 01:45:41;;;;;;;20.97;10.87;;;7.40;99.90;;;;;;10211378;29;20660;-88
2023/03/30 01:50:54;;;;;;;15.77;10.90;;;7.20;99.90;;;;;;10209495;29;20262;-88
2023/03/30 01:56:06;;;;;;;17.17;11.27;;;7.20;99.90;;;;;;10210173;29;20245;-88
2023/03/30 02:01:13;;;;;;;14.47;11.13;;;7.20;99.90;;;;;;10168842;29;20259;-89
2023/03/30 02:06:23;;;;;;;19.17;11.60;;;7.20;99.90;;;;;;10209178;29;20239;-88
2023/03/30 02:11:29;;;;;;;15.63;11.77;;;7.30;99.90;;;;;;10208112;29;20294;-89
2023/03/30 02:16:41;;;;;;;14.07;10.17;;;7.20;99.90;;;;;;10207301;29;20250;-89
2023/03/30 02:21:45;;;;;;;14.80;10.20;;;7.10;99.90;;;;;;10210640;29;20293;-89
2023/03/30 02:26:50;;;;;;;17.67;11.60;;;7.10;99.90;;;;;;10218442;28;20211;-89
2023/03/30 02:31:56;;;;;;;15.63;10.97;;;7.00;99.90;;;;;;10208837;29;20274;-89
2023/03/30 02:37:37;;;;;;;15.43;10.97;;;6.90;99.90;;;;;;10222847;29;20270;-91
2023/03/30 02:43:11;;;;;;;17.37;12.30;;;7.00;99.90;;;;;;10198308;29;20265;-92
2023/03/30 02:48:46;;;;;;;21.63;13.87;;;6.90;99.90;;;;;;10206433;29;20246;-91
2023/03/30 02:54:17;;;;;;;18.00;12.53;;;7.20;99.90;;;;;;10086848;29;20747;-91
2023/03/30 03:00:07;;;;;;;15.67;12.37;;;7.10;99.90;;;;;;10065379;29;20232;-90
2023/03/30 03:05:13;;;;;;;14.87;11.00;;;7.10;99.90;;;;;;10086433;29;20273;-91
2023/03/30 03:10:35;;;;;;;18.53;12.40;;;7.30;99.90;;;;;;10086490;29;20281;-91
2023/03/30 03:15:40;;;;;;;17.77;12.03;;;7.40;99.90;;;;;;10070974;29;20445;-91
2023/03/30 03:20:46;;;;;;;11.27;8.07;;;7.60;99.90;;;;;;10070835;29;20260;-91
2023/03/30 03:25:49;;;;;;;15.47;11.40;;;7.70;99.90;;;;;;10069972;29;20292;-92
2023/03/30 03:30:55;;;;;;;19.23;12.33;;;7.60;99.90;;;;;;10187400;29;20684;-92
2023/03/30 03:35:59;;;;;;;15.83;12.07;;;7.30;99.90;;;;;;10192693;29;20294;-92
2023/03/30 03:41:06;;;;;;;20.27;14.17;;;7.30;99.90;;;;;;10205377;29;20288;-91
2023/03/30 03:46:09;;;;;;;18.80;13.60;;;7.30;99.90;;;;;;10205193;29;20242;-91
2023/03/30 03:51:13;;;;;;;19.17;14.40;;;7.20;99.90;;;;;;10205394;29;20262;-91
2023/03/30 03:56:15;;;;;;;18.27;13.33;;;7.30;99.90;;;;;;10218504;29;20297;-91
2023/03/30 04:01:18;;;;;;;19.97;13.67;;;7.20;99.90;;;;;;10204690;29;20266;-92
2023/03/30 04:06:21;;;;;;;17.10;12.90;;;7.10;99.90;;;;;;10206107;29;20256;-91
2023/03/30 04:11:25;;;;;;;15.60;11.67;;;7.00;99.90;;;;;;10204438;29;20289;-91
2023/03/30 04:16:56;;;;;;;16.07;12.53;;;7.00;99.90;;;;;;10203958;29;20250;-91
2023/03/30 04:22:18;;;;;;;17.50;11.23;;;7.10;99.90;;;;;;10205118;29;20270;-92
2023/03/30 04:27:44;;;;;;;17.83;11.90;;;7.10;99.90;;;;;;10219950;29;20270;-90
2023/03/30 04:33:03;;;;;;;18.10;13.13;;;7.20;99.90;;;;;;10202884;29;20282;-92
2023/03/30 04:38:35;;;;;;;17.80;12.90;;;7.20;99.90;;;;;;10203012;29;20254;-91
2023/03/30 04:44:08;;;;;;;25.27;16.07;;;7.10;99.90;;;;;;10239099;28;20274;-91
2023/03/30 04:49:37;;;;;;;27.93;18.70;;;7.30;99.90;;;;;;10203164;29;20246;-89
2023/03/30 04:54:55;;;;;;;20.00;13.37;;;7.20;99.90;;;;;;10213113;29;20241;-89
2023/03/30 05:00:33;;;;;;;18.50;13.40;;;7.40;99.90;;;;;;10115078;29;20666;-91
2023/03/30 05:06:08;;;;;;;19.03;12.10;;;7.50;99.90;;;;;;10054680;29;20695;-89
2023/03/30 05:11:33;;;;;;;16.03;12.40;;;7.70;99.90;;;;;;10075620;29;20339;-89
2023/03/30 05:17:14;;;;;;;8.10;6.70;;;7.70;99.90;;;;;;10063109;29;20237;-90
2023/03/30 05:22:36;;;;;;;30.87;20.47;;;7.80;99.90;;;;;;10051658;29;20268;-90
2023/03/30 05:28:06;;;;;;;21.93;15.27;;;8.60;99.90;;;;;;10050403;29;20230;-90
2023/03/30 05:33:30;;;;;;;20.60;14.33;;;8.40;99.90;;;;;;10070760;29;20308;-88
2023/03/30 05:38:51;;;;;;;21.20;13.93;;;8.30;99.90;;;;;;10108838;29;20263;-90
2023/03/30 05:44:14;;;;;;;17.67;12.67;;;8.10;99.90;;;;;;10205160;29;20715;-89
2023/03/30 05:49:56;;;;;;;16.53;12.77;;;7.90;99.90;;;;;;10192337;29;20222;-90
2023/03/30 05:55:10;;;;;;;18.40;12.77;;;8.00;99.90;;;;;;10223624;29;20210;-91
2023/03/30 06:00:36;;;;;;;21.90;14.07;;;8.90;99.90;;;;;;10208329;29;20258;-90
2023/03/30 06:05:48;;;;;;;19.90;12.90;;;8.90;99.90;;;;;;10208578;29;20665;-90
2023/03/30 06:10:55;;;;;;;16.47;11.77;;;8.80;99.90;;;;;;10209852;29;20234;-91
2023/03/30 06:16:00;;;;;;;16.93;12.10;;;8.70;99.90;;;;;;10207317;29;20242;-90
2023/03/30 06:21:07;;;;;;;21.07;15.83;;;8.70;99.90;;;;;;10192848;29;20327;-90
2023/03/30 06:26:39;;;;;;;19.90;13.43;;;8.60;99.90;;;;;;10197130;29;20238;-86
2023/03/30 06:31:42;;;;;;;26.23;19.23;;;8.60;99.90;;;;;;10210806;29;20230;-93
2023/03/30 06:37:07;;;;;;;21.37;14.43;;;;;;;;;;10209766;28;20230;-93
2023/03/30 06:42:10;;;;;;;22.20;15.20;;;9.50;99.90;;;;;;10211914;29;20231;-93
2023/03/30 06:47:52;;;;;;;24.47;15.50;;;9.50;99.90;;;;;;10188828;29;20203;-93
2023/03/30 06:52:56;;;;;;;21.43;15.33;;;9.60;99.90;;;;;;10187938;29;20239;-93
2023/03/30 06:58:04;;;;;;;18.67;13.80;;;9.90;99.90;;;;;;10176820;29;20330;-95
2023/03/30 07:03:07;;;;;;;16.63;13.50;;;10.00;99.90;;;;;;10206865;29;20334;-95
2023/03/30 07:08:30;;;;;;;18.00;13.43;;;10.00;99.90;;;;;;10173467;29;20212;-94
2023/03/30 07:13:33;;;;;;;16.77;12.57;;;10.10;99.90;;;;;;10203539;29;20239;-92
2023/03/30 07:18:36;;;;;;;17.60;12.60;;;10.20;99.90;;;;;;10189714;29;20238;-93
2023/03/30 07:23:39;;;;;;;17.07;12.57;;;10.00;99.90;;;;;;10208273;29;20258;-92
2023/03/30 07:28:47;;;;;;;18.20;12.77;;;9.90;99.90;;;;;;10206126;29;20227;-93
2023/03/30 07:33:50;;;;;;;13.67;11.63;;;9.80;99.90;;;;;;10206215;29;20242;-95
2023/03/30 07:38:58;;;;;;;17.57;13.03;;;9.90;99.90;;;;;;10225309;29;20238;-94
2023/03/30 07:44:02;;;;;;;14.47;11.27;;;10.10;99.90;;;;;;10223017;29;20298;-94
2023/03/30 07:49:05;;;;;;;15.03;11.53;;;10.20;99.90;;;;;;10207087;29;20227;-93
2023/03/30 07:54:09;;;;;;;17.80;12.60;;;10.30;99.90;;;;;;10208163;29;20207;-94
2023/03/30 07:59:27;;;;;;;16.20;12.37;;;10.30;99.90;;;;;;10222068;29;20255;-94
2023/03/30 08:04:37;;;;;;;13.77;11.03;;;10.30;99.90;;;;;;10206415;29;20259;-93
2023/03/30 08:09:40;;;;;;;18.13;13.10;;;10.50;99.90;;;;;;10207040;29;20204;-93
2023/03/30 08:14:43;;;;;;;14.00;11.13;;;;;;;;;;10208126;29;20199;-93
2023/03/30 08:19:45;;;;;;;15.03;12.00;;;11.00;99.90;;;;;;10211528;29;20238;-93
2023/03/30 08:24:48;;;;;;;18.10;13.53;;;11.30;99.90;;;;;;10213288;29;20262;-93
2023/03/30 08:29:53;;;;;;;16.27;11.73;;;11.50;99.90;;;;;;10211673;29;20234;-94
2023/03/30 08:34:55;;;;;;;15.30;12.17;;;11.70;99.90;;;;;;10210077;29;20258;-93
2023/03/30 08:39:58;;;;;;;12.40;10.83;;;;;;;;;;10211521;29;20266;-93
2023/03/30 08:45:04;;;;;;;17.47;12.23;;;12.20;99.90;;;;;;10212472;29;20323;-93
2023/03/30 08:50:28;;;;;;;18.13;12.27;;;12.20;99.90;;;;;;10200462;29;20795;-95
2023/03/30 08:55:41;;;;;;;12.03;9.47;;;12.10;99.90;;;;;;10197126;29;20213;-94
2023/03/30 09:00:52;;;;;;;14.80;9.60;;;12.50;99.90;;;;;;10212449;29;20759;-93
2023/03/30 09:06:05;;;;;;;12.20;10.03;;;13.00;99.90;;;;;;10213141;29;20345;-94
2023/03/30 09:11:15;;;;;;;11.07;9.90;;;13.00;99.90;;;;;;10212571;29;20246;-96
2023/03/30 09:16:46;;;;;;;14.20;10.63;;;13.30;99.90;;;;;;10213391;29;20239;-94
2023/03/30 09:21:51;;;;;;;14.03;10.57;;;13.30;99.90;;;;;;10207217;29;20292;-93
2023/03/30 09:26:59;;;;;;;16.17;10.47;;;13.60;99.90;;;;;;10211512;29;20586;-93
2023/03/30 09:32:29;;;;;;;16.33;10.47;;;13.80;99.90;;;;;;10219739;28;20210;-96
2023/03/30 09:37:34;;;;;;;9.70;7.73;;;14.10;99.90;;;;;;10201829;29;20235;-96
2023/03/30 09:43:08;;;;;;;9.73;8.40;;;14.30;99.90;;;;;;10232392;29;20219;-96
2023/03/30 09:48:14;;;;;;;12.33;8.23;;;14.40;99.90;;;;;;10111932;29;20217;-96
2023/03/30 09:53:28;;;;;;;12.33;9.93;;;14.50;99.90;;;;;;10139067;29;20244;-96
2023/03/30 09:58:35;;;;;;;14.13;9.87;;;14.60;99.90;;;;;;10144204;29;20220;-96
2023/03/30 10:03:41;;;;;;;10.13;8.80;;;14.60;99.90;;;;;;10132234;29;21016;-95
2023/03/30 10:08:52;;;;;;;11.93;9.93;;;15.00;99.90;;;;;;10119561;29;20202;-95
2023/03/30 10:13:57;;;;;;;12.60;9.80;;;15.00;99.90;;;;;;10106818;29;20217;-95
2023/03/30 10:19:02;;;;;;;14.10;11.20;;;14.90;99.90;;;;;;10139190;23;20274;-79
2023/03/30 10:24:22;;;;;;;16.80;12.03;;;15.00;99.90;;;;;;10208370;29;20285;-80
2023/03/30 10:29:27;;;;;;;11.63;8.83;;;14.40;99.90;;;;;;10192312;29;20242;-80
2023/03/30 10:35:08;;;;;;;12.90;10.37;;;14.00;99.90;;;;;;10204430;29;20243;-80
2023/03/30 10:40:19;;;;;;;13.73;9.97;;;14.10;99.90;;;;;;10040641;29;20303;-81
2023/03/30 10:45:39;;;;;;;9.33;7.57;;;14.10;99.90;;;;;;10027658;29;20319;-81
2023/03/30 10:51:00;;;;;;;15.37;12.13;;;14.20;99.90;;;;;;10044633;29;20297;-81
2023/03/30 10:56:09;;;;;;;10.77;8.90;;;13.90;99.90;;;;;;10044173;29;20284;-81
2023/03/30 11:01:14;;;;;;;11.47;9.40;;;13.80;99.90;;;;;;10031412;29;20293;-81
2023/03/30 11:06:25;;;;;;;14.73;10.30;;;13.70;99.90;;;;;;10047446;29;20291;-82
2023/03/30 11:11:36;;;;;;;13.03;10.50;;;13.70;99.90;;;;;;10047283;29;20261;-82
2023/03/30 11:16:46;;;;;;;13.73;10.20;;;13.70;99.90;;;;;;10190840;29;20242;-81
2023/03/30 11:21:52;;;;;;;13.67;8.87;;;14.10;99.90;;;;;;10206497;29;20307;-82
2023/03/30 11:27:17;;;;;;;15.07;11.43;;;14.50;99.90;;;;;;10205734;29;20239;-81
2023/03/30 11:32:29;;;;;;;11.90;9.03;;;14.60;99.90;;;;;;10204178;29;20653;-82
2023/03/30 11:37:50;;;;;;;9.50;7.57;;;14.60;99.90;;;;;;10205226;29;20430;-82
2023/03/30 11:42:53;;;;;;;13.17;10.37;;;14.70;99.90;;;;;;10188864;29;20249;-82
2023/03/30 11:48:15;;;;;;;11.80;9.73;;;14.60;99.90;;;;;;10190376;29;20241;-84
2023/03/30 11:53:30;;;;;;;12.43;9.27;;;14.60;99.90;;;;;;10174583;29;20245;-83
2023/03/30 11:58:44;;;;;;;9.77;8.53;;;14.50;99.90;;;;;;10194879;29;20291;-84
2023/03/30 12:03:53;;;;;;;9.70;8.33;;;14.60;99.90;;;;;;10211714;29;20256;-84
2023/03/30 12:09:09;;;;;;;14.30;10.07;;;14.50;99.90;;;;;;10212399;29;20228;-84
2023/03/30 12:14:46;;;;;;;17.60;10.13;;;14.40;99.90;;;;;;10208922;29;20229;-84
2023/03/30 12:19:55;;;;;;;20.57;12.43;;;14.30;99.90;;;;;;10195690;29;20274;-83
2023/03/30 12:25:04;;;;;;;18.80;13.43;;;14.10;99.90;;;;;;10180675;29;20255;-82
2023/03/30 12:30:24;;;;;;;14.50;10.60;;;13.80;99.90;;;;;;10193132;29;20229;-83
2023/03/30 12:35:55;;;;;;;18.10;12.03;;;13.80;99.90;;;;;;10210667;29;20232;-84
2023/03/30 12:41:13;;;;;;;18.73;13.50;;;13.80;99.90;;;;;;10208415;29;20237;-81
2023/03/30 12:46:24;;;;;;;16.67;11.77;;;13.90;99.90;;;;;;10208570;29;20317;-84
2023/03/30 12:51:36;;;;;;;16.93;11.87;;;14.00;99.90;;;;;;10206970;29;20235;-82
2023/03/30 12:57:05;;;;;;;17.40;12.23;;;14.00;99.90;;;;;;10203152;29;20293;-82
2023/03/30 13:02:42;;;;;;;16.03;11.77;;;14.00;99.90;;;;;;10203689;29;20709;-81
2023/03/30 13:07:44;;;;;;;18.40;12.77;;;14.20;99.90;;;;;;10206851;29;20274;-82
2023/03/30 13:12:48;;;;;;;15.53;11.20;;;14.50;99.90;;;;;;10204201;29;20241;-85
2023/03/30 13:18:21;;;;;;;11.97;10.07;;;14.80;99.90;;;;;;10179070;29;1149929;-82
2023/03/30 13:23:32;;;;;;;18.33;11.77;;;15.00;99.90;;;;;;10208691;29;20262;-82
2023/03/30 13:28:58;;;;;;;18.00;12.47;;;15.10;99.90;;;;;;10210139;29;20699;-82
2023/03/30 13:34:16;;;;;;;19.50;12.80;;;15.00;99.90;;;;;;10208958;29;20648;-81
2023/03/30 13:39:37;;;;;;;20.07;12.80;;;14.90;99.90;;;;;;10210471;29;20230;-81
2023/03/30 13:45:04;;;;;;;18.87;11.63;;;14.90;99.90;;;;;;10206688;29;20259;-81
2023/03/30 13:50:24;;;;;;;10.90;8.17;;;14.80;99.90;;;;;;10171282;29;20296;-83
2023/03/30 13:55:30;;;;;;;15.60;12.60;;;14.90;99.90;;;;;;10207150;29;20690;-91
2023/03/30 14:00:43;;;;;;;25.23;15.23;;;14.90;99.90;;;;;;10192665;29;20250;-85
2023/03/30 14:05:51;;;;;;;35.83;20.20;;;14.90;99.90;;;;;;10185020;29;20319;-81
2023/03/30 14:10:54;;;;;;;19.63;11.97;;;14.70;99.90;;;;;;10191737;29;20238;-84
2023/03/30 14:15:57;;;;;;;21.97;12.53;;;14.60;99.90;;;;;;10206963;29;20290;-82
2023/03/30 14:21:03;;;;;;;21.73;12.80;;;14.50;99.90;;;;;;10208559;29;20272;-82
2023/03/30 14:26:25;;;;;;;44.77;24.30;;;14.50;99.90;;;;;;10205334;29;20309;-82
2023/03/30 14:31:39;;;;;;;19.57;12.23;;;14.50;99.90;;;;;;10207295;29;20309;-82
2023/03/30 14:36:45;;;;;;;19.00;12.73;;;14.60;99.90;;;;;;10207895;29;20325;-82
2023/03/30 14:41:48;;;;;;;28.23;17.43;;;14.90;99.90;;;;;;10206335;29;20231;-82
2023/03/30 14:46:54;;;;;;;24.23;16.67;;;15.10;99.90;;;;;;10208177;29;20264;-82
2023/03/30 14:52:03;;;;;;;23.03;14.33;;;15.20;99.90;;;;;;10205810;29;20702;-82
2023/03/30 14:57:08;;;;;;;11.83;8.40;;;15.40;99.90;;;;;;10208302;29;20250;-84
2023/03/30 15:02:26;;;;;;;24.27;14.37;;;15.50;99.90;;;;;;10206910;29;20266;-85
2023/03/30 15:07:30;;;;;;;26.27;17.30;;;15.40;99.90;;;;;;10207857;29;20239;-83
2023/03/30 15:12:41;;;;;;;20.70;11.97;;;15.10;99.90;;;;;;10198366;29;20237;-83
2023/03/30 15:17:48;;;;;;;16.67;8.60;;;15.00;99.90;;;;;;10205762;29;20292;-86
2023/03/30 15:22:51;;;;;;;14.63;9.33;;;15.00;99.90;;;;;;10206504;29;20258;-84
2023/03/30 15:28:10;;;;;;;17.60;9.57;;;15.20;99.90;;;;;;10206231;29;20295;-82
2023/03/30 15:33:35;;;;;;;18.07;10.73;;;15.10;99.90;;;;;;10205749;29;20710;-84
2023/03/30 15:38:57;;;;;;;19.23;11.33;;;14.60;99.90;;;;;;10203850;29;20231;-83
2023/03/30 15:44:14;;;;;;;20.90;11.93;;;14.30;99.90;;;;;;10204118;29;20253;-87
2023/03/30 15:49:21;;;;;;;18.33;11.13;;;14.10;99.90;;;;;;10201772;29;20239;-85
2023/03/30 15:54:39;;;;;;;14.53;7.27;;;14.10;99.90;;;;;;10203956;29;20302;-83
2023/03/30 15:59:44;;;;;;;15.40;9.03;;;14.10;99.90;;;;;;10205228;29;20242;-85
2023/03/30 16:04:50;;;;;;;16.27;8.63;;;14.20;99.90;;;;;;10204149;29;20266;-83
2023/03/30 16:09:53;;;;;;;18.00;8.13;;;14.40;99.90;;;;;;10205123;29;20287;-83
2023/03/30 16:14:57;;;;;;;15.50;9.23;;;14.40;99.90;;;;;;10191714;29;20236;-84
2023/03/30 16:19:59;;;;;;;12.50;7.00;;;14.30;99.90;;;;;;10205432;29;20317;-84
2023/03/30 16:25:02;;;;;;;11.27;8.07;;;14.50;99.90;;;;;;10203225;29;20298;-85
2023/03/30 16:30:15;;;;;;;13.83;7.67;;;14.70;99.90;;;;;;10198832;29;20239;-88
2023/03/30 16:35:18;;;;;;;12.57;8.13;;;14.90;99.90;;;;;;10204961;29;20288;-82
2023/03/30 16:40:34;;;;;;;17.87;8.93;;;14.80;99.90;;;;;;10208182;29;20238;-82
2023/03/30 16:45:37;;;;;;;17.40;9.73;;;14.60;99.90;;;;;;10187952;29;20324;-83
2023/03/30 16:50:42;;;;;;;21.80;11.60;;;14.40;99.90;;;;;;10205585;29;20270;-82
2023/03/30 16:55:45;;;;;;;17.93;10.10;;;14.40;99.90;;;;;;10207582;29;20257;-80
2023/03/30 17:00:50;;;;;;;24.83;13.03;;;14.40;99.90;;;;;;10197752;29;20697;-82
2023/03/30 17:05:53;;;;;;;20.80;13.50;;;14.30;99.90;;;;;;10172779;29;20311;-82
2023/03/30 17:11:00;;;;;;;21.80;11.50;;;14.00;99.90;;;;;;10183166;29;20219;-81
2023/03/30 17:16:02;;;;;;;15.50;8.50;;;14.10;99.90;;;;;;10210896;29;20300;-81
2023/03/30 17:21:08;;;;;;;18.37;11.53;;;14.40;99.90;;;;;;10210116;29;20293;-84
2023/03/30 17:26:11;;;;;;;18.97;10.73;;;14.30;99.90;;;;;;10208710;29;20316;-81
2023/03/30 17:31:19;;;;;;;17.10;10.50;;;14.20;99.90;;;;;;10209440;29;20293;-81
2023/03/30 17:36:24;;;;;;;17.50;11.27;;;14.00;99.90;;;;;;10209771;29;20246;-83
2023/03/30 17:41:27;;;;;;;13.63;9.00;;;13.70;99.90;;;;;;10210536;29;20234;-84
2023/03/30 17:46:31;;;;;;;15.37;9.97;;;13.50;99.90;;;;;;10208045;29;20671;-82
2023/03/30 17:51:34;;;;;;;13.37;9.67;;;13.60;99.90;;;;;;10207636;29;20243;-82
2023/03/30 17:56:36;;;;;;;15.57;9.43;;;13.60;99.90;;;;;;10210019;29;20757;-83
2023/03/30 18:01:39;;;;;;;12.33;9.27;;;14.30;99.90;;;;;;10204040;29;20230;-81
2023/03/30 18:06:41;;;;;;;11.80;5.03;;;14.40;99.90;;;;;;10204538;29;20289;-82
2023/03/30 18:11:44;;;;;;;5.33;4.03;;;14.70;99.90;;;;;;10208847;29;20230;-82
2023/03/30 18:16:47;;;;;;;9.37;4.47;;;14.90;99.90;;;;;;10206402;29;20242;-81
2023/03/30 18:21:51;;;;;;;7.07;4.37;;;15.00;99.90;;;;;;10207447;29;20266;-81
2023/03/30 18:26:54;;;;;;;8.40;3.30;;;15.20;99.90;;;;;;10206735;29;20268;-81
2023/03/30 18:31:56;;;;;;;6.67;4.20;;;15.60;99.90;;;;;;10206236;29;20230;-83
2023/03/30 18:36:59;;;;;;;3.43;2.37;;;15.80;99.90;;;;;;10200852;29;20282;-81
2023/03/30 18:42:02;;;;;;;5.53;3.10;;;15.90;99.90;;;;;;10203089;29;20701;-82
2023/03/30 18:47:04;;;;;;;3.23;2.37;;;15.80;99.90;;;;;;10206315;29;20257;-82
2023/03/30 18:52:07;;;;;;;6.17;2.60;;;15.50;99.90;;;;;;10206231;29;20256;-82
2023/03/30 18:57:09;;;;;;;6.87;3.30;;;15.50;99.90;;;;;;10207749;29;20234;-81
2023/03/30 19:02:12;;;;;;;3.30;2.23;;;15.30;99.90;;;;;;10206887;29;20246;-82
2023/03/30 19:07:14;;;;;;;2.53;1.67;;;15.00;99.90;;;;;;10202961;29;20270;-82
2023/03/30 19:12:17;;;;;;;7.30;3.90;;;14.50;99.90;;;;;;10205550;29;20240;-82
2023/03/30 19:17:20;;;;;;;10.73;4.87;;;12.90;99.90;;;;;;10206140;29;20255;-82
2023/03/30 19:22:22;;;;;;;12.30;7.47;;;12.10;99.90;;;;;;10208023;29;20236;-82
2023/03/30 19:27:25;;;;;;;9.87;4.90;;;11.60;99.90;;;;;;10207598;29;20698;-81
2023/03/30 19:32:28;;;;;;;10.13;4.87;;;12.10;99.90;;;;;;10205450;29;20889;-83
2023/03/30 19:37:31;;;;;;;10.77;5.20;;;12.90;99.90;;;;;;10205526;29;20263;-82
2023/03/30 19:42:35;;;;;;;16.60;6.90;;;13.30;99.90;;;;;;10205283;29;20230;-82
2023/03/30 19:47:38;;;;;;;13.63;7.43;;;13.30;99.90;;;;;;10201787;29;20718;-81
2023/03/30 19:52:41;;;;;;;8.23;5.63;;;12.90;99.90;;;;;;10204037;29;20625;-82
2023/03/30 19:57:44;;;;;;;8.10;6.17;;;12.60;99.90;;;;;;10205437;29;20246;-83
2023/03/30 20:02:49;;;;;;;7.17;5.20;;;12.80;99.90;;;;;;10205246;29;20257;-82
2023/03/30 20:07:52;;;;;;;7.83;5.20;;;13.20;99.90;;;;;;10204888;29;20264;-81
2023/03/30 20:12:55;;;;;;;7.17;4.90;;;13.20;99.90;;;;;;10194536;29;20248;-82
2023/03/30 20:17:58;;;;;;;7.90;4.40;;;13.60;99.90;;;;;;10211526;29;20272;-81
2023/03/30 20:23:01;;;;;;;5.17;3.73;;;13.90;99.90;;;;;;10208076;29;20650;-82
2023/03/30 20:28:04;;;;;;;8.03;5.57;;;14.10;99.90;;;;;;10213751;29;20506;-81
2023/03/30 20:33:07;;;;;;;8.70;4.93;;;14.60;99.90;;;;;;10213200;29;20238;-82
2023/03/30 20:38:10;;;;;;;5.00;3.50;;;14.50;99.90;;;;;;10208156;29;20242;-81
2023/03/30 20:43:13;;;;;;;14.77;8.90;;;14.60;99.90;;;;;;10213388;29;20243;-81
2023/03/30 20:48:25;;;;;;;5.70;3.23;;;14.90;99.90;;;;;;10211708;29;20282;-82
2023/03/30 20:53:32;;;;;;;3.93;3.23;;;15.10;99.90;;;;;;10212786;29;20681;-81
2023/03/30 20:58:36;;;;;;;7.93;5.33;;;15.60;99.90;;;;;;10211468;29;20287;-82
2023/03/30 21:03:40;;;;;;;6.50;4.80;;;15.60;99.90;;;;;;10211058;29;20683;-82
2023/03/30 21:08:42;;;;;;;5.77;4.03;;;15.50;99.90;;;;;;10211522;29;20265;-82
2023/03/30 21:13:45;;;;;;;4.70;3.60;;;15.80;99.90;;;;;;10214583;29;20296;-82
2023/03/30 21:18:48;;;;;;;6.80;4.03;;;15.90;99.90;;;;;;10211379;29;20323;-82
2023/03/30 21:23:51;;;;;;;6.17;4.47;;;15.70;99.90;;;;;;10209701;29;20235;-81
2023/03/30 21:28:53;;;;;;;5.60;4.10;;;15.50;99.90;;;;;;10207404;29;20241;-81
2023/03/30 21:33:56;;;;;;;6.47;3.90;;;15.70;99.90;;;;;;10197006;29;20234;-82
2023/03/30 21:38:59;;;;;;;5.03;2.57;;;15.70;99.90;;;;;;10176373;29;20241;-82
2023/03/30 21:44:02;;;;;;;6.13;3.43;;;15.80;99.90;;;;;;10209464;29;20267;-82
2023/03/30 21:49:04;;;;;;;7.17;5.40;;;15.60;99.90;;;;;;10206579;29;20646;-81
2023/03/30 21:54:08;;;;;;;6.37;3.90;;;15.30;99.90;;;;;;10206812;29;22005;-82
2023/03/30 21:59:12;;;;;;;6.67;3.60;;;15.00;99.90;;;;;;10207075;29;20874;-82
2023/03/30 22:04:14;;;;;;;5.13;3.83;;;14.90;99.90;;;;;;10208396;29;20637;-81
2023/03/30 22:09:17;;;;;;;6.93;4.17;;;15.00;99.90;;;;;;10208680;29;20233;-82
2023/03/30 22:14:21;;;;;;;5.83;4.30;;;15.00;99.90;;;;;;10207172;29;20243;-82
2023/03/30 22:19:23;;;;;;;5.60;4.13;;;14.90;99.90;;;;;;10207883;29;20264;-82
2023/03/30 22:24:26;;;;;;;6.03;4.00;;;14.80;99.90;;;;;;10208559;29;20807;-82
2023/03/30 22:29:29;;;;;;;8.37;5.07;;;15.10;99.90;;;;;;10208392;29;20677;-81
2023/03/30 22:34:31;;;;;;;7.80;3.60;;;15.10;99.90;;;;;;10208035;29;20611;-82
2023/03/30 22:39:36;;;;;;;6.57;4.70;;;15.20;99.90;;;;;;10207666;29;20299;-81
2023/03/30 22:44:40;;;;;;;4.03;3.37;;;15.00;99.90;;;;;;10200819;29;20258;-82
2023/03/30 22:49:42;;;;;;;5.73;3.90;;;15.10;99.90;;;;;;10206146;29;20242;-82
2023/03/30 22:54:45;;;;;;;4.07;3.20;;;14.80;99.90;;;;;;10206519;29;20990;-80
2023/03/30 22:59:47;;;;;;;4.63;3.20;;;14.70;99.90;;;;;;10207229;29;20707;-81
2023/03/30 23:04:51;;;;;;;4.77;3.53;;;14.70;99.90;;;;;;10207848;29;20716;-81
2023/03/30 23:09:57;;;;;;;4.03;3.20;;;14.60;99.90;;;;;;10202516;29;20293;-82
2023/03/30 23:15:00;;;;;;;8.50;4.13;;;14.40;99.90;;;;;;10199555;29;20238;-80
2023/03/30 23:20:08;;;;;;;4.57;3.80;;;14.80;99.90;;;;;;10199799;29;20270;-80
2023/03/30 23:25:14;;;;;;;4.40;3.07;;;15.00;99.90;;;;;;10201224;29;20360;-80
2023/03/30 23:30:17;;;;;;;5.13;3.07;;;15.20;99.90;;;;;;10204605;29;20245;-80
2023/03/30 23:35:19;;;;;;;4.47;3.17;;;15.20;99.90;;;;;;10205941;29;20243;-81
2023/03/30 23:40:22;;;;;;;3.87;2.77;;;15.10;99.90;;;;;;10204561;29;20602;-81
2023/03/30 23:45:24;;;;;;;3.60;3.30;;;15.30;99.90;;;;;;10217484;29;20262;-81
2023/03/30 23:50:27;;;;;;;4.00;3.30;;;15.10;99.90;;;;;;10205089;29;20231;-81
2023/03/30 23:55:32;;;;;;;5.33;3.80;;;15.40;99.90;;;;;;10214263;29;20232;-81
